Time;durP1;ratioP1;P1;durP2;ratioP2;P2;SDS_P1;SDS_P2;PMS_P1;PMS_P2;Temp;Humidity;BMP_temperature;BMP_pressure;BME280_temperature;BME280_humidity;BME280_pressure;Samples;Min_cycle;Max_cycle;Signal;HPM_P1;HPM_P2
2022/11/26 00:02:34;;;;;;;30.27;13.97;;;;;;;9.21;52.07;100760.25;10370743;28;20236;-44
2022/11/26 00:07:36;;;;;;;21.57;12.40;;;;;;;9.58;52.30;100753.06;10385108;28;20674;-43
2022/11/26 00:12:37;;;;;;;21.53;10.93;;;;;;;9.26;52.59;100783.00;10374390;28;20834;-44
2022/11/26 00:17:39;;;;;;;24.67;10.27;;;;;;;8.91;52.77;100803.28;10375984;28;20732;-44
2022/11/26 00:22:54;;;;;;;17.73;8.17;;;;;;;8.91;52.96;100835.31;10375950;28;20800;-44
2022/11/26 00:27:57;;;;;;;14.30;9.00;;;;;;;8.44;53.52;100826.34;10375235;28;20248;-42
2022/11/26 00:32:58;;;;;;;18.03;8.83;;;;;;;9.12;53.18;100805.72;10375272;28;20322;-43
2022/11/26 00:38:01;;;;;;;21.23;7.73;;;;;;;10.00;51.91;100786.34;10371313;28;20239;-44
2022/11/26 00:43:02;;;;;;;16.80;9.03;;;;;;;9.93;51.86;100811.03;10376398;28;20607;-44
2022/11/26 00:48:04;;;;;;;21.60;9.83;;;;;;;9.89;51.43;100815.00;10375192;28;20744;-44
2022/11/26 00:53:09;;;;;;;21.47;10.40;;;;;;;10.30;50.86;100836.69;10374975;28;20259;-44
2022/11/26 00:58:28;;;;;;;19.97;9.50;;;;;;;9.29;52.23;100887.69;10374017;28;20243;-44
2022/11/26 01:03:30;;;;;;;17.07;9.00;;;;;;;9.49;52.39;100875.06;10373743;28;20232;-44
2022/11/26 01:08:34;;;;;;;19.73;9.43;;;;;;;8.45;53.31;100900.06;10384636;28;20257;-43
2022/11/26 01:13:35;;;;;;;12.47;6.53;;;;;;;8.18;54.68;100899.94;10387843;28;20283;-43
2022/11/26 01:18:37;;;;;;;15.23;7.03;;;;;;;8.92;53.45;100899.25;10373118;28;20229;-43
2022/11/26 01:23:39;;;;;;;18.13;8.27;;;;;;;9.15;53.68;100928.28;10374923;28;20237;-43
2022/11/26 01:28:41;;;;;;;12.90;7.03;;;;;;;10.03;52.42;100872.44;10373845;28;20232;-43
2022/11/26 01:33:43;;;;;;;11.53;6.77;;;;;;;9.32;51.69;100903.44;10380496;28;20240;-43
2022/11/26 01:38:45;;;;;;;15.70;7.03;;;;;;;10.88;50.14;100880.75;10384879;28;20220;-43
2022/11/26 01:43:50;;;;;;;13.40;6.97;;;;;;;9.31;53.01;100983.72;10374628;28;20234;-43
2022/11/26 01:48:54;;;;;;;14.20;6.57;;;;;;;9.15;52.46;100958.47;10378290;28;20304;-43
2022/11/26 01:53:58;;;;;;;15.43;7.17;;;;;;;10.17;51.53;100921.03;10392700;28;20228;-43
2022/11/26 01:59:09;;;;;;;15.00;6.50;;;;;;;10.61;50.14;100921.03;10383811;28;20212;-43
2022/11/26 02:04:29;;;;;;;13.03;6.07;;;;;;;11.10;49.11;100933.91;10373290;28;20255;-43
2022/11/26 02:09:31;;;;;;;11.40;6.47;;;;;;;10.26;50.54;100974.47;10386931;28;20233;-43
2022/11/26 02:14:37;;;;;;;13.53;6.70;;;;;;;9.66;50.47;100984.81;10370790;28;20240;-43
2022/11/26 02:19:55;;;;;;;14.23;7.60;;;;;;;10.17;51.45;101002.09;10371994;28;20776;-43
2022/11/26 02:25:47;;;;;;;16.27;7.73;;;;;;;8.90;53.18;101034.69;10368707;28;20713;-43
2022/11/26 02:30:57;;;;;;;16.13;6.93;;;;;;;8.93;53.15;101037.09;10319486;28;20726;-46
2022/11/26 02:36:16;;;;;;;13.93;7.57;;;;;;;8.00;54.60;100993.09;10362896;28;20597;-45
2022/11/26 02:41:18;;;;;;;14.17;7.60;;;;;;;8.73;53.66;101006.06;10370989;28;20229;-43
2022/11/26 02:46:20;;;;;;;17.63;7.87;;;;;;;8.79;53.69;100994.78;10377277;28;20229;-43
2022/11/26 02:51:25;;;;;;;18.00;7.70;;;;;;;9.55;51.70;100946.63;10373006;28;20729;-43
2022/11/26 02:56:35;;;;;;;11.93;7.10;;;;;;;10.64;49.66;100937.59;10356685;28;20233;-43
2022/11/26 03:01:49;;;;;;;14.87;7.00;;;;;;;10.45;50.28;100984.16;10374900;28;20237;-43
2022/11/26 03:06:53;;;;;;;15.80;7.17;;;;;;;10.63;49.39;100976.09;10380558;28;20875;-43
2022/11/26 03:11:54;;;;;;;13.43;6.50;;;;;;;11.34;48.17;100998.34;10382515;28;20236;-43
2022/11/26 03:16:56;;;;;;;14.13;6.43;;;;;;;9.46;51.64;101067.72;10380318;28;20239;-44
2022/11/26 03:21:58;;;;;;;13.40;6.37;;;;;;;10.00;50.52;101045.72;10365457;28;20237;-43
2022/11/26 03:27:00;;;;;;;15.30;6.97;;;;;;;9.00;52.71;101058.72;10377925;28;20240;-43
2022/11/26 03:32:01;;;;;;;13.43;7.33;;;;;;;8.73;53.33;101054.09;10367128;28;20612;-46
2022/11/26 03:37:03;;;;;;;17.00;8.20;;;;;;;8.93;53.04;101041.59;10378919;28;20232;-43
2022/11/26 03:42:05;;;;;;;14.33;6.60;;;;;;;8.76;53.86;101033.28;10369220;28;20216;-44
2022/11/26 03:47:07;;;;;;;16.93;6.67;;;;;;;9.81;51.21;100982.50;10384278;28;20220;-43
2022/11/26 03:52:09;;;;;;;16.37;6.80;;;;;;;10.52;49.77;100969.13;10387449;28;20682;-43
2022/11/26 03:57:11;;;;;;;13.83;7.40;;;;;;;10.93;48.36;100973.97;10379190;28;20732;-46
2022/11/26 04:02:12;;;;;;;15.00;6.80;;;;;;;10.84;48.02;100991.00;10379805;28;20209;-43
2022/11/26 04:07:14;;;;;;;12.97;6.50;;;;;;;11.21;47.96;101014.84;10390115;28;20242;-43
2022/11/26 04:12:16;;;;;;;13.53;6.63;;;;;;;9.69;49.77;101048.69;10375847;28;20678;-43
2022/11/26 04:17:18;;;;;;;21.17;7.90;;;;;;;10.77;48.37;101008.69;10395276;28;20225;-43
2022/11/26 04:22:20;;;;;;;18.50;7.37;;;;;;;10.11;48.62;101029.47;10378207;28;20250;-43
2022/11/26 04:27:21;;;;;;;10.33;6.37;;;;;;;10.54;49.19;101053.81;10375416;28;20269;-43
2022/11/26 04:32:23;;;;;;;14.30;7.60;;;;;;;9.55;50.29;101088.25;10373977;28;20209;-43
2022/11/26 04:37:25;;;;;;;10.97;7.77;;;;;;;9.27;51.10;101099.88;10370163;28;20982;-43
2022/11/26 04:42:27;;;;;;;10.60;6.70;;;;;;;10.18;49.74;101053.78;10374493;28;20707;-44
2022/11/26 04:47:28;;;;;;;12.73;7.07;;;;;;;9.80;49.55;101069.84;10372997;28;20429;-43
2022/11/26 04:52:30;;;;;;;20.40;7.77;;;;;;;10.86;47.87;101030.00;10386145;28;20245;-43
2022/11/26 04:57:32;;;;;;;16.40;8.33;;;;;;;8.47;51.07;101066.16;10375239;28;20242;-45
2022/11/26 05:02:33;;;;;;;20.13;8.33;;;;;;;9.30;50.89;101084.38;10375451;28;20241;-43
2022/11/26 05:07:35;;;;;;;19.07;8.30;;;;;;;9.88;50.21;101082.53;10378913;28;20349;-43
2022/11/26 05:12:37;;;;;;;15.37;8.10;;;;;;;8.55;52.33;101100.13;10383087;28;20214;-43
2022/11/26 05:17:39;;;;;;;16.30;7.40;;;;;;;8.77;52.98;101088.34;10393355;28;20237;-43
2022/11/26 05:22:41;;;;;;;15.47;7.70;;;;;;;9.44;51.96;101069.72;10379276;28;20228;-43
2022/11/26 05:27:43;;;;;;;16.40;8.57;;;;;;;9.45;50.89;101102.63;10369177;28;20291;-43
2022/11/26 05:32:45;;;;;;;16.20;8.43;;;;;;;8.75;52.46;101124.16;10378126;28;20286;-45
2022/11/26 05:37:46;;;;;;;14.33;7.80;;;;;;;9.05;52.22;101112.53;10383482;28;20245;-43
2022/11/26 05:42:48;;;;;;;15.60;8.53;;;;;;;8.07;53.97;101080.41;10380449;28;20229;-43
2022/11/26 05:47:50;;;;;;;14.70;8.70;;;;;;;8.75;53.12;101100.97;10379296;28;20237;-43
2022/11/26 05:52:52;;;;;;;18.33;8.70;;;;;;;8.93;52.27;101092.31;10372391;28;20251;-43
2022/11/26 05:57:53;;;;;;;12.37;8.23;;;;;;;7.80;53.95;101082.81;10369345;28;20216;-43
2022/11/26 06:02:55;;;;;;;13.03;8.30;;;;;;;8.05;54.58;101101.03;10373947;28;20246;-43
2022/11/26 06:07:57;;;;;;;14.63;9.20;;;;;;;8.02;54.56;101111.13;10374574;28;20232;-46
2022/11/26 06:12:58;;;;;;;15.50;9.10;;;;;;;7.67;55.18;101099.00;10367238;28;20669;-43
2022/11/26 06:18:00;;;;;;;15.50;9.60;;;;;;;7.16;55.56;101074.91;10380895;28;20248;-43
2022/11/26 06:23:02;;;;;;;16.67;9.80;;;;;;;7.98;53.78;101107.84;10377863;28;20244;-43
2022/11/26 06:28:04;;;;;;;16.43;9.60;;;;;;;7.01;55.14;101064.72;10389027;28;20244;-43
2022/11/26 06:33:05;;;;;;;13.53;10.40;;;;;;;6.81;56.15;101052.09;10366590;28;20626;-43
2022/11/26 06:38:07;;;;;;;37.37;11.10;;;;;;;5.91;57.57;101032.91;10365300;28;20237;-45
2022/11/26 06:43:09;;;;;;;76.30;11.60;;;;;;;6.44;56.43;101068.44;10371018;28;20252;-43
2022/11/26 06:48:10;;;;;;;64.13;11.80;;;;;;;6.62;56.84;101063.41;10376736;28;20238;-43
2022/11/26 06:53:12;;;;;;;72.27;11.27;;;;;;;7.29;54.80;101082.69;10380717;28;20247;-43
2022/11/26 06:58:14;;;;;;;51.13;13.17;;;;;;;8.87;51.42;101076.84;10369664;28;20240;-43
2022/11/26 07:03:16;;;;;;;59.60;14.73;;;;;;;7.68;52.98;101135.34;10365281;28;20245;-43
2022/11/26 07:08:24;;;;;;;62.40;13.63;;;;;;;8.07;54.01;101108.88;10375481;28;20239;-43
2022/11/26 07:13:25;;;;;;;32.00;12.47;;;;;;;7.99;54.63;101106.88;10378551;28;20234;-43
2022/11/26 07:18:27;;;;;;;36.47;12.40;;;;;;;7.67;52.46;101163.78;10367990;28;20237;-43
2022/11/26 07:23:29;;;;;;;31.40;14.13;;;;;;;8.50;51.44;101137.06;10384834;28;20585;-43
2022/11/26 07:28:32;;;;;;;30.53;17.67;;;;;;;8.77;51.47;101157.72;10391207;28;20236;-43
2022/11/26 07:33:34;;;;;;;19.27;11.17;;;;;;;7.02;55.00;101164.88;10377903;28;20241;-42
2022/11/26 07:38:35;;;;;;;18.20;10.10;;;;;;;7.25;54.34;101174.44;10376236;28;20242;-44
2022/11/26 07:43:39;;;;;;;22.73;12.53;;;;;;;7.78;53.58;101159.34;10378313;28;20307;-41
2022/11/26 07:48:41;;;;;;;26.20;15.80;;;;;;;7.84;53.01;101172.16;10377334;28;20237;-42
2022/11/26 07:53:42;;;;;;;22.27;14.17;;;;;;;8.74;51.66;101149.16;10377394;28;20714;-42
2022/11/26 07:58:44;;;;;;;30.43;15.33;;;;;;;8.89;51.81;101179.00;10374384;28;20263;-44
2022/11/26 08:03:48;;;;;;;23.80;12.40;;;;;;;8.09;53.79;101203.75;10377168;28;20234;-39
2022/11/26 08:08:50;;;;;;;18.47;12.77;;;;;;;8.95;52.60;101165.09;10376222;28;20605;-40
2022/11/26 08:13:54;;;;;;;26.33;14.70;;;;;;;8.25;54.45;101221.06;10376367;28;20751;-42
2022/11/26 08:18:58;;;;;;;25.93;14.63;;;;;;;8.70;52.89;101198.47;10377813;28;20247;-44
2022/11/26 08:24:00;;;;;;;20.53;12.70;;;;;;;9.14;51.78;101177.59;10380847;28;20596;-44
2022/11/26 08:29:02;;;;;;;20.53;13.17;;;;;;;9.40;52.43;101185.88;10375921;28;20314;-42
2022/11/26 08:34:03;;;;;;;21.07;11.60;;;;;;;9.20;52.34;101201.91;10372670;28;20248;-41
2022/11/26 08:39:05;;;;;;;20.23;10.87;;;;;;;9.42;52.15;101213.31;10369658;28;20240;-43
2022/11/26 08:44:07;;;;;;;21.40;11.57;;;;;;;8.32;54.00;101246.25;10370358;28;20233;-43
2022/11/26 08:49:11;;;;;;;19.93;10.03;;;;;;;8.85;53.54;101259.31;10369174;28;20276;-40
2022/11/26 08:54:13;;;;;;;16.43;10.33;;;;;;;8.57;53.83;101270.75;10375257;28;20247;-42
2022/11/26 08:59:16;;;;;;;16.23;10.20;;;;;;;9.74;52.11;101186.25;10373507;28;20237;-40
2022/11/26 09:04:18;;;;;;;17.37;10.57;;;;;;;9.18;52.62;101233.28;10390237;28;20323;-41
2022/11/26 09:09:19;;;;;;;18.13;10.67;;;;;;;8.41;54.09;101258.75;10374728;28;20252;-41
2022/11/26 09:14:26;;;;;;;21.40;10.43;;;;;;;8.27;54.56;101246.63;10373990;28;20229;-40
2022/11/26 09:19:28;;;;;;;15.23;10.60;;;;;;;8.27;54.02;101246.63;10372634;28;20825;-42
2022/11/26 09:24:30;;;;;;;20.33;11.43;;;;;;;8.77;53.46;101248.47;10387032;28;20241;-41
2022/11/26 09:29:31;;;;;;;18.47;10.83;;;;;;;8.54;54.02;101269.22;10374010;28;20240;-43
2022/11/26 09:34:33;;;;;;;17.13;11.17;;;;;;;8.53;54.08;101272.84;10370157;28;20230;-42
2022/11/26 09:39:35;;;;;;;20.73;10.67;;;;;;;10.23;51.19;101214.69;10372758;28;20237;-42
2022/11/26 09:44:52;;;;;;;15.80;10.70;;;;;;;10.10;51.80;101233.72;10372238;28;20240;-40
2022/11/26 09:50:18;;;;;;;16.57;8.93;;;;;;;10.70;50.31;101211.91;10372586;28;20236;-43
2022/11/26 09:55:34;;;;;;;16.50;8.50;;;;;;;8.98;52.66;101268.94;10370905;28;20236;-42
2022/11/26 10:00:57;;;;;;;15.27;9.87;;;;;;;11.69;48.30;101224.41;10370081;28;20260;-40
2022/11/26 10:06:06;;;;;;;12.57;9.17;;;;;;;11.02;49.90;101251.63;10370944;28;20259;-45
2022/11/26 10:11:32;;;;;;;15.37;8.43;;;;;;;9.33;52.97;101321.00;10369123;28;20241;-44
2022/11/26 10:16:54;;;;;;;14.77;8.20;;;;;;;10.69;50.96;101216.41;10368350;28;20236;-39
2022/11/26 10:22:02;;;;;;;12.30;7.67;;;;;;;9.45;53.05;101295.00;10370468;28;20233;-42
2022/11/26 10:27:11;;;;;;;15.83;7.40;;;;;;;10.36;50.94;101255.34;10371135;28;20248;-43
2022/11/26 10:32:26;;;;;;;13.23;6.87;;;;;;;9.35;52.72;101300.34;10370696;28;20219;-44
2022/11/26 10:37:28;;;;;;;13.00;7.50;;;;;;;8.20;55.05;101247.28;10370276;28;20621;-44
2022/11/26 10:42:39;;;;;;;13.00;6.97;;;;;;;10.21;52.05;101187.22;10376953;28;20241;-42
2022/11/26 10:47:41;;;;;;;10.03;6.40;;;;;;;11.67;49.25;101191.53;10369772;28;20246;-42
2022/11/26 10:52:44;;;;;;;11.13;6.17;;;;;;;12.65;47.37;101227.94;10371288;28;20244;-38
2022/11/26 10:58:06;;;;;;;11.17;6.90;;;;;;;11.34;49.64;101238.66;10362597;28;20233;-44
2022/11/26 11:06:19;;;;;;;11.50;6.20;;;;;;;7.31;58.48;101179.28;10365060;28;20316;-64
2022/11/26 11:11:27;;;;;;;13.73;8.20;;;;;;;8.25;56.73;101184.59;10373378;28;20662;-67
2022/11/26 11:16:42;;;;;;;14.03;8.57;;;;;;;7.62;57.17;101176.66;10387381;28;20242;-72
2022/11/26 11:21:44;;;;;;;11.53;7.00;;;;;;;7.36;58.27;101170.91;10384588;28;20355;-69
2022/11/26 11:26:54;;;;;;;11.43;6.97;;;;;;;8.07;56.38;101160.38;10353310;28;20257;-69
2022/11/26 11:31:56;;;;;;;11.80;7.33;;;;;;;7.72;56.82;101156.25;10329428;28;20752;-69
2022/11/26 11:37:03;;;;;;;13.17;7.17;;;;;;;7.67;56.11;101149.63;10411311;28;20245;-69
2022/11/26 11:42:28;;;;;;;16.23;8.57;;;;;;;8.55;55.86;101125.97;10402566;28;20244;-68
2022/11/26 11:47:41;;;;;;;12.63;7.50;;;;;;;8.43;55.76;101138.59;10431425;28;20242;-72
2022/11/26 11:53:15;;;;;;;15.53;8.23;;;;;;;9.09;55.31;101123.78;10403470;28;20263;-70
2022/11/26 11:58:50;;;;;;;14.17;7.43;;;;;;;8.08;55.88;101179.88;10362533;28;20985;-71
2022/11/26 12:04:18;;;;;;;14.10;7.43;;;;;;;9.37;53.69;101122.88;10342185;28;20238;-70
2022/11/26 12:09:39;;;;;;;12.30;6.73;;;;;;;9.69;52.79;101134.22;10382301;28;20238;-69
2022/11/26 12:14:47;;;;;;;13.47;7.23;;;;;;;9.28;52.92;101163.84;10409342;28;20234;-70
2022/11/26 12:20:04;;;;;;;15.90;7.23;;;;;;;8.99;53.89;101186.03;10333983;28;20242;-71
2022/11/26 12:25:24;;;;;;;13.10;7.20;;;;;;;8.44;55.96;101188.31;10335513;28;20249;-71
2022/11/26 12:30:50;;;;;;;11.03;6.80;;;;;;;8.38;55.06;101176.34;10321131;28;20239;-71
2022/11/26 12:35:56;;;;;;;13.83;6.77;;;;;;;9.15;54.75;101163.28;10397864;28;20806;-71
2022/11/26 12:41:07;;;;;;;16.17;9.20;;;;;;;9.25;53.65;101160.56;10395379;28;20288;-73
2022/11/26 12:46:23;;;;;;;14.27;7.00;;;;;;;8.47;54.76;101204.88;10375704;28;20287;-69
2022/11/26 12:51:37;;;;;;;11.70;6.10;;;;;;;8.45;55.91;101182.84;10342103;28;20292;-69
2022/11/26 12:57:13;;;;;;;10.03;5.37;;;;;;;8.66;53.44;101152.53;10360612;28;20667;-70
2022/11/26 13:02:27;;;;;;;10.37;5.83;;;;;;;9.20;53.18;101169.88;10326670;28;20250;-68
2022/11/26 13:07:47;;;;;;;8.97;5.30;;;;;;;7.52;55.52;101197.06;10367465;28;20251;-71
2022/11/26 13:13:04;;;;;;;11.27;5.83;;;;;;;8.27;54.44;101195.13;10341349;28;20997;-73
2022/11/26 13:18:16;;;;;;;9.23;4.97;;;;;;;7.52;54.53;101181.09;10301701;28;20230;-66
2022/11/26 13:23:38;;;;;;;12.67;5.03;;;;;;;8.70;53.16;101177.97;10300766;28;20247;-66
2022/11/26 13:28:49;;;;;;;9.70;4.50;;;;;;;7.61;54.79;101193.66;10324674;28;20235;-71
2022/11/26 13:34:19;;;;;;;10.97;5.00;;;;;;;8.75;52.42;101181.06;10314599;28;20857;-69
2022/11/26 13:39:52;;;;;;;12.77;4.97;;;;;;;8.52;53.34;101207.13;10305699;28;20243;-67
2022/11/26 13:45:08;;;;;;;9.87;4.97;;;;;;;8.21;52.67;101201.81;10391324;28;20292;-67
2022/11/26 13:50:22;;;;;;;11.13;4.17;;;;;;;9.82;50.57;101168.63;10373737;28;20764;-67
2022/11/26 13:55:30;;;;;;;10.83;4.63;;;;;;;9.06;51.17;101188.97;10392179;28;20254;-67
2022/11/26 14:00:34;;;;;;;9.43;4.33;;;;;;;7.45;53.76;101225.22;10354271;28;20253;-69
2022/11/26 14:05:47;;;;;;;10.80;4.40;;;;;;;8.72;52.14;101205.34;10338602;28;20262;-69
2022/11/26 14:10:49;;;;;;;9.53;3.90;;;;;;;8.06;51.96;101188.00;10372983;28;20272;-66
2022/11/26 14:15:58;;;;;;;9.13;4.73;;;;;;;9.05;51.04;101178.47;10360919;28;20234;-70
2022/11/26 14:21:00;;;;;;;11.60;5.40;;;;;;;9.72;49.14;101182.88;10364715;28;20234;-69
2022/11/26 14:26:02;;;;;;;8.13;4.60;;;;;;;10.52;47.92;101204.66;10391565;28;20272;-69
2022/11/26 14:31:15;;;;;;;7.80;4.40;;;;;;;8.85;50.48;101218.44;10391209;28;20234;-70
2022/11/26 14:36:26;;;;;;;11.17;4.80;;;;;;;8.84;50.79;101233.63;10377459;28;20286;-64
2022/11/26 14:41:52;;;;;;;9.57;4.07;;;;;;;8.71;50.93;101222.34;10330127;28;20855;-66
2022/11/26 14:46:57;;;;;;;8.37;4.63;;;;;;;8.91;50.87;101228.63;10367340;28;20251;-66
2022/11/26 14:52:03;;;;;;;8.27;4.20;;;;;;;8.71;51.22;101243.72;10390944;28;20235;-68
2022/11/26 14:57:16;;;;;;;10.70;4.40;;;;;;;9.73;49.38;101197.06;10363252;28;20615;-66
2022/11/26 15:02:22;;;;;;;9.00;4.63;;;;;;;10.85;47.92;101214.94;10386928;28;20738;-66
2022/11/26 15:07:25;;;;;;;11.50;4.77;;;;;;;11.06;47.42;101228.88;10362563;28;20230;-66
2022/11/26 15:12:27;;;;;;;7.70;4.30;;;;;;;10.37;47.92;101232.09;10384386;28;20227;-69
2022/11/26 15:17:31;;;;;;;7.13;3.10;;;;;;;8.99;51.29;101263.47;10352991;28;20239;-66
2022/11/26 15:22:37;;;;;;;5.90;3.50;;;;;;;8.70;51.28;101251.84;10386684;28;20726;-70
2022/11/26 15:27:46;;;;;;;5.30;3.50;;;;;;;9.92;49.01;101217.59;10388057;28;20237;-68
2022/11/26 15:33:06;;;;;;;6.70;3.83;;;;;;;8.56;50.62;101223.72;10361800;28;20753;-67
2022/11/26 15:38:19;;;;;;;5.33;3.87;;;;;;;8.65;50.71;101236.25;10339822;28;20246;-67
2022/11/26 15:43:36;;;;;;;6.90;4.07;;;;;;;8.22;51.31;101221.34;10364296;28;20227;-70
2022/11/26 15:48:42;;;;;;;5.60;4.07;;;;;;;7.79;52.12;101217.03;10304682;28;20238;-69
2022/11/26 15:53:53;;;;;;;6.17;4.50;;;;;;;7.81;52.16;101215.91;10396139;28;20566;-70
2022/11/26 15:58:58;;;;;;;9.37;4.03;;;;;;;8.21;52.48;101215.16;10393849;28;20257;-69
2022/11/26 16:04:03;;;;;;;5.33;3.83;;;;;;;7.35;53.25;101194.00;10322239;28;20289;-65
2022/11/26 16:09:07;;;;;;;8.67;4.37;;;;;;;7.27;53.45;101180.47;10396152;28;20730;-66
2022/11/26 16:14:31;;;;;;;6.30;4.10;;;;;;;7.25;53.25;101192.25;10394879;28;20235;-65
2022/11/26 16:19:34;;;;;;;5.67;3.57;;;;;;;8.39;51.91;101186.03;10392425;28;20245;-66
2022/11/26 16:24:39;;;;;;;6.93;3.67;;;;;;;7.82;52.38;101188.28;10376116;28;20328;-65
2022/11/26 16:29:41;;;;;;;7.43;3.40;;;;;;;7.56;52.90;101182.53;10329851;28;20251;-66
2022/11/26 16:34:44;;;;;;;4.00;3.60;;;;;;;8.29;51.49;101182.50;10355594;28;20230;-68
2022/11/26 16:39:46;;;;;;;10.00;4.00;;;;;;;8.46;50.50;101189.84;10375671;28;20715;-66
2022/11/26 16:44:48;;;;;;;7.13;5.60;;;;;;;7.91;51.63;101202.66;10385612;28;20253;-68
2022/11/26 16:49:50;;;;;;;8.17;5.53;;;;;;;8.46;50.85;101192.50;10272648;28;20239;-68
2022/11/26 16:54:52;;;;;;;6.07;4.40;;;;;;;9.18;48.97;101162.97;10402601;28;20235;-66
2022/11/26 16:59:58;;;;;;;8.23;5.23;;;;;;;8.55;49.99;101193.50;10378736;28;20252;-65
2022/11/26 17:05:00;;;;;;;8.63;5.30;;;;;;;8.93;49.32;101175.09;10307567;28;20325;-66
2022/11/26 17:10:03;;;;;;;7.57;5.23;;;;;;;8.82;49.36;101203.53;10393763;28;20655;-68
2022/11/26 17:15:05;;;;;;;8.27;6.07;;;;;;;9.00;49.34;101222.44;10391980;28;20280;-65
2022/11/26 17:20:26;;;;;;;20.67;13.80;;;;;;;8.66;49.66;101238.78;10370313;28;20634;-68
2022/11/26 17:25:27;;;;;;;10.97;4.87;;;;;;;7.86;50.02;101221.72;10391186;28;20239;-66
2022/11/26 17:30:29;;;;;;;8.07;4.63;;;;;;;7.63;51.30;101223.66;10370027;28;20277;-64
2022/11/26 17:35:31;;;;;;;13.07;5.67;;;;;;;8.59;49.42;101221.63;10398493;28;20314;-65
2022/11/26 17:40:33;;;;;;;8.30;6.27;;;;;;;8.24;49.80;101219.41;10408165;28;20325;-65
2022/11/26 17:45:35;;;;;;;9.80;5.50;;;;;;;8.47;49.71;101233.34;10368457;28;20265;-69
2022/11/26 17:50:37;;;;;;;7.63;6.00;;;;;;;8.75;49.25;101229.09;10314107;28;20772;-65
2022/11/26 17:55:38;;;;;;;10.37;5.83;;;;;;;7.98;50.30;101237.63;10399891;28;20239;-67
2022/11/26 18:00:40;;;;;;;7.97;5.23;;;;;;;7.87;50.31;101242.06;10375918;28;20285;-67
2022/11/26 18:05:42;;;;;;;8.37;5.47;;;;;;;7.02;52.48;101188.84;10363077;28;20234;-67
2022/11/26 18:10:43;;;;;;;9.53;5.80;;;;;;;7.08;52.21;101196.31;10391363;28;20239;-65
2022/11/26 18:15:45;;;;;;;9.73;7.30;;;;;;;6.84;52.61;101185.88;10387085;28;20231;-67
2022/11/26 18:20:47;;;;;;;8.23;6.73;;;;;;;6.88;52.52;101174.84;10396309;28;20715;-65
2022/11/26 18:25:49;;;;;;;15.00;11.63;;;;;;;6.62;53.30;101172.47;10390459;28;20269;-65
2022/11/26 18:30:56;;;;;;;13.37;9.07;;;;;;;8.66;49.69;101160.53;10390699;28;20379;-65
2022/11/26 18:35:58;;;;;;;11.47;8.77;;;;;;;7.29;51.34;101201.66;10390433;28;20242;-65
2022/11/26 18:41:02;;;;;;;11.07;7.87;;;;;;;8.25;50.01;101189.06;10339643;28;20270;-65
2022/11/26 18:46:05;;;;;;;9.80;6.20;;;;;;;7.72;50.63;101208.72;10388595;28;20239;-65
2022/11/26 18:51:08;;;;;;;8.67;5.60;;;;;;;7.16;51.28;101196.53;10312445;28;20656;-65
2022/11/26 18:56:12;;;;;;;9.50;6.77;;;;;;;7.22;52.03;101196.00;10370668;28;20315;-66
2022/11/26 19:01:24;;;;;;;8.23;6.23;;;;;;;6.97;52.55;101174.09;10385051;28;20234;-66
2022/11/26 19:06:28;;;;;;;9.30;6.47;;;;;;;7.05;52.73;101172.63;10354890;28;20242;-65
2022/11/26 19:11:30;;;;;;;10.30;7.63;;;;;;;6.34;53.54;101144.59;10391371;28;20247;-66
2022/11/26 19:16:32;;;;;;;11.30;8.03;;;;;;;6.11;54.21;101111.03;10384420;28;20223;-66
2022/11/26 19:21:34;;;;;;;8.90;7.40;;;;;;;5.90;54.89;101095.00;10389223;28;20274;-65
2022/11/26 19:26:37;;;;;;;10.23;8.37;;;;;;;5.95;55.18;101083.03;10395313;28;20232;-66
2022/11/26 19:31:39;;;;;;;10.93;7.60;;;;;;;6.15;54.39;101077.94;10398269;28;20243;-65
2022/11/26 19:36:41;;;;;;;13.10;7.70;;;;;;;5.18;56.33;101049.16;10397250;28;20231;-66
2022/11/26 19:41:42;;;;;;;11.67;8.50;;;;;;;5.61;55.04;101067.09;10397374;28;20231;-65
2022/11/26 19:46:46;;;;;;;10.73;8.00;;;;;;;5.86;54.76;101058.03;10393722;28;20830;-65
2022/11/26 19:51:48;;;;;;;14.03;8.23;;;;;;;6.06;54.14;101068.91;10307079;28;20764;-65
2022/11/26 19:56:50;;;;;;;11.93;7.87;;;;;;;6.22;53.95;101069.34;10357389;28;20235;-65
2022/11/26 20:01:54;;;;;;;14.00;9.00;;;;;;;5.59;54.88;101066.41;10363389;28;20610;-66
2022/11/26 20:06:57;;;;;;;10.93;8.07;;;;;;;4.77;57.14;101032.78;10367521;28;20266;-65
2022/11/26 20:11:59;;;;;;;11.10;7.87;;;;;;;6.58;53.03;101034.53;10397227;28;20244;-65
2022/11/26 20:17:01;;;;;;;13.40;8.07;;;;;;;4.73;55.77;101027.84;10394871;28;20260;-65
2022/11/26 20:22:03;;;;;;;9.23;7.73;;;;;;;5.67;54.98;101047.19;10396234;28;20239;-65
2022/11/26 20:27:05;;;;;;;13.03;8.30;;;;;;;5.16;55.70;101044.94;10373905;28;20723;-66
2022/11/26 20:32:07;;;;;;;10.77;7.37;;;;;;;6.12;53.96;101036.50;10397388;28;20618;-68
2022/11/26 20:37:08;;;;;;;12.30;7.80;;;;;;;6.04;53.49;101023.84;10395638;28;20234;-66
2022/11/26 20:42:10;;;;;;;13.50;8.00;;;;;;;5.45;54.62;101024.09;10396801;28;20740;-66
2022/11/26 20:47:12;;;;;;;14.90;8.03;;;;;;;5.21;55.35;101019.75;10395207;28;20628;-65
2022/11/26 20:52:14;;;;;;;10.73;7.90;;;;;;;3.92;58.08;100968.41;10377080;28;20234;-65
2022/11/26 20:57:17;;;;;;;13.53;9.40;;;;;;;4.27;58.38;100989.69;10384017;28;20207;-65
2022/11/26 21:02:19;;;;;;;14.23;9.87;;;;;;;4.72;56.69;100992.50;10356911;28;20288;-66
2022/11/26 21:07:21;;;;;;;15.40;9.27;;;;;;;4.91;56.06;100991.13;10364149;28;20231;-65
2022/11/26 21:12:24;;;;;;;13.53;9.60;;;;;;;4.99;55.61;101001.97;10391098;28;20785;-65
2022/11/26 21:17:26;;;;;;;13.30;10.00;;;;;;;3.64;58.17;100978.38;10370084;28;20625;-64
2022/11/26 21:22:28;;;;;;;15.17;11.10;;;;;;;3.93;57.88;100986.84;10388973;28;20337;-65
2022/11/26 21:27:32;;;;;;;17.47;10.60;;;;;;;4.64;55.71;101000.19;10393885;28;20234;-67
2022/11/26 21:32:34;;;;;;;16.10;10.27;;;;;;;5.05;54.26;101009.47;10391532;28;20257;-65
2022/11/26 21:37:35;;;;;;;12.67;9.63;;;;;;;4.75;55.05;101018.81;10393531;28;20237;-65
2022/11/26 21:42:37;;;;;;;16.23;11.60;;;;;;;4.09;56.39;101009.59;10394223;28;20233;-65
2022/11/26 21:47:38;;;;;;;16.13;12.10;;;;;;;3.59;57.45;100988.44;10392297;28;20237;-65
2022/11/26 21:52:40;;;;;;;18.23;11.43;;;;;;;3.45;58.09;100987.59;10370627;28;20225;-64
2022/11/26 21:57:42;;;;;;;22.70;13.03;;;;;;;3.44;58.04;100975.31;10348076;28;20252;-67
2022/11/26 22:02:43;;;;;;;17.03;12.40;;;;;;;3.95;56.69;100979.66;10285463;28;20267;-65
2022/11/26 22:07:45;;;;;;;17.33;13.13;;;;;;;4.31;55.73;100985.84;10370332;28;20299;-67
2022/11/26 22:12:47;;;;;;;18.33;11.73;;;;;;;4.51;55.46;100976.44;10392681;28;20232;-65
2022/11/26 22:17:49;;;;;;;19.23;12.17;;;;;;;5.04;54.60;100975.09;10391229;28;20230;-65
2022/11/26 22:22:50;;;;;;;18.13;12.07;;;;;;;4.07;55.22;100982.34;10390619;28;20234;-65
2022/11/26 22:27:52;;;;;;;16.73;13.00;;;;;;;3.87;56.42;100984.66;10391228;28;20245;-65
2022/11/26 22:32:54;;;;;;;18.87;13.40;;;;;;;4.07;56.44;100990.28;10394058;28;20253;-66
2022/11/26 22:37:55;;;;;;;21.43;12.80;;;;;;;3.94;56.69;100990.34;10379091;28;20247;-65
2022/11/26 22:42:57;;;;;;;18.97;13.47;;;;;;;4.33;56.00;100986.59;10392672;28;20241;-65
2022/11/26 22:47:59;;;;;;;21.27;13.63;;;;;;;3.30;57.49;100971.97;10370380;28;20244;-65
2022/11/26 22:53:00;;;;;;;18.53;13.77;;;;;;;3.60;57.17;100975.09;10341283;28;20208;-65
2022/11/26 22:58:02;;;;;;;16.87;12.60;;;;;;;3.95;57.15;100977.00;10368301;28;20308;-65
2022/11/26 23:03:04;;;;;;;18.17;12.83;;;;;;;5.85;51.38;100965.19;10272060;28;20225;-66
2022/11/26 23:08:05;;;;;;;16.73;12.37;;;;;;;6.31;50.00;100984.47;10311009;28;20252;-67
2022/11/26 23:13:09;;;;;;;21.10;13.23;;;;;;;6.38;49.53;101005.13;10359655;28;20513;-66
2022/11/26 23:18:12;;;;;;;20.53;13.10;;;;;;;5.06;51.53;101053.59;10376120;28;20337;-67
2022/11/26 23:23:14;;;;;;;17.43;12.60;;;;;;;6.69;49.87;101007.88;10384304;28;20242;-71